Time;durP1;ratioP1;P1;durP2;ratioP2;P2;SDS_P1;SDS_P2;PMS_P1;PMS_P2;Temp;Humidity;BMP_temperature;BMP_pressure;BME280_temperature;BME280_humidity;BME280_pressure;Samples;Min_cycle;Max_cycle;Signal;HPM_P1;HPM_P2
2021/12/24 00:00:47;;;;;;;0.50;0.20;;;;;;;7.40;85.11;99613.44;4919674;29;20131;-79
2021/12/24 00:03:17;;;;;;;0.17;0.17;;;;;;;7.38;84.44;99628.00;4919601;29;20491;-79
2021/12/24 00:05:46;;;;;;;0.10;0.10;;;;;;;7.35;85.26;99628.78;4919482;29;20048;-80
2021/12/24 00:08:15;;;;;;;0.00;0.00;;;;;;;7.36;87.40;99629.66;4921083;29;20055;-82
2021/12/24 00:10:47;;;;;;;2.08;0.30;;;;;;;7.34;88.31;99630.47;4918775;29;20052;-79
2021/12/24 00:13:17;;;;;;;0.50;0.25;;;;;;;7.30;89.57;99632.94;4920086;29;20044;-80
2021/12/24 00:16:03;;;;;;;1.65;0.20;;;;;;;7.31;93.93;99643.28;4906222;29;20067;-79
2021/12/24 00:18:42;;;;;;;0.45;0.45;;;;;;;7.33;95.86;99643.34;4918049;29;20058;-77
2021/12/24 00:35:17;;;;;;;0.20;0.20;;;;;;;7.26;95.83;99620.81;4917863;29;20099;-75
2021/12/24 00:37:48;;;;;;;0.13;0.13;;;;;;;7.20;96.50;99621.56;4919121;29;20083;-76
2021/12/24 00:40:21;;;;;;;0.98;0.38;;;;;;;7.17;96.67;99618.94;4918943;28;20080;-77
2021/12/24 00:42:53;;;;;;;1.17;0.28;;;;;;;7.13;97.32;99614.53;4918837;29;20139;-78
2021/12/24 00:45:25;;;;;;;0.70;0.20;;;;;;;7.09;100.00;99613.56;4917394;29;20048;-76
2021/12/24 00:47:54;;;;;;;0.10;0.10;;;;;;;7.02;100.00;99621.09;4919098;29;20060;-80
2021/12/24 00:50:27;;;;;;;4.78;0.25;;;;;;;6.95;100.00;99626.91;4917451;29;20527;-78
2021/12/24 00:53:02;;;;;;;0.68;0.20;;;;;;;6.85;100.00;99624.13;4916646;29;20056;-77
2021/12/24 00:55:31;;;;;;;3.80;0.77;;;;;;;6.73;100.00;99605.78;4917413;29;20052;-82
2021/12/24 00:58:06;;;;;;;0.25;0.20;;;;;;;6.71;100.00;99615.13;4905355;29;20044;-81
2021/12/24 01:00:38;;;;;;;3.92;0.45;;;;;;;6.69;100.00;99614.25;4918165;29;20059;-78
2021/12/24 01:03:08;;;;;;;4.35;0.63;;;;;;;6.66;100.00;99607.31;4917262;29;20108;-78
2021/12/24 01:05:40;;;;;;;1.08;0.40;;;;;;;6.63;100.00;99611.50;4918021;29;20468;-72
2021/12/24 01:08:11;;;;;;;0.73;0.30;;;;;;;6.60;100.00;99608.88;4916724;29;20052;-72
2021/12/24 01:10:42;;;;;;;5.22;0.38;;;;;;;6.60;100.00;99602.03;4917598;29;20080;-77
2021/12/24 01:13:11;;;;;;;0.35;0.35;;;;;;;6.61;100.00;99605.47;4917278;29;20577;-76
2021/12/24 01:15:50;;;;;;;0.77;0.30;;;;;;;6.53;100.00;99601.78;4918416;29;20084;-75
2021/12/24 01:18:26;;;;;;;5.35;0.75;;;;;;;6.57;100.00;99599.34;4917450;29;20056;-73
2021/12/24 01:21:09;;;;;;;1.40;0.30;;;;;;;6.58;100.00;99595.09;4918075;29;20410;-75
2021/12/24 01:23:45;;;;;;;0.22;0.22;;;;;;;6.60;100.00;99588.31;4917455;29;20055;-78
2021/12/24 01:26:19;;;;;;;0.98;0.38;;;;;;;6.60;100.00;99590.88;4917095;29;20127;-75
2021/12/24 01:29:09;;;;;;;0.43;0.38;;;;;;;6.57;100.00;99580.50;4917887;29;20511;-79
2021/12/24 01:40:08;;;;;;;0.40;0.40;;;;;;;6.36;100.00;99583.38;4894043;28;20052;-74
2021/12/24 01:42:45;;;;;;;1.52;0.50;;;;;;;6.34;100.00;99590.16;4915744;29;20108;-77
2021/12/24 01:45:23;;;;;;;0.43;0.20;;;;;;;6.24;100.00;99587.31;4917485;29;20131;-76
2021/12/24 01:47:53;;;;;;;1.98;0.60;;;;;;;6.22;100.00;99582.97;4915993;29;20083;-73
2021/12/24 01:50:23;;;;;;;0.73;0.30;;;;;;;6.27;100.00;99586.53;4917281;29;20060;-73
2021/12/24 01:52:55;;;;;;;0.85;0.20;;;;;;;6.28;100.00;99578.03;4914602;29;20049;-73
2021/12/24 01:55:25;;;;;;;0.98;0.32;;;;;;;6.25;100.00;99575.34;4925600;29;20071;-72
2021/12/24 01:57:53;;;;;;;0.15;0.15;;;;;;;6.25;100.00;99570.22;4919107;29;20048;-74
2021/12/24 02:00:24;;;;;;;4.75;0.45;;;;;;;6.29;100.00;99575.47;4915295;29;20525;-74
2021/12/24 02:02:53;;;;;;;0.52;0.20;;;;;;;6.30;100.00;99573.81;4929180;29;20051;-72
2021/12/24 02:05:22;;;;;;;2.15;0.30;;;;;;;6.28;100.00;99567.75;4915528;29;20048;-75
2021/12/24 02:07:51;;;;;;;1.17;0.30;;;;;;;6.33;100.00;99586.72;4915767;29;20052;-77
2021/12/24 02:10:21;;;;;;;0.70;0.35;;;;;;;6.33;100.00;99579.00;4914698;29;20076;-78
2021/12/24 02:12:50;;;;;;;0.20;0.15;;;;;;;6.38;100.00;99595.41;4916423;29;20119;-78
2021/12/24 02:15:28;;;;;;;0.10;0.10;;;;;;;6.39;100.00;99599.75;4915660;29;20116;-79
2021/12/24 02:29:07;;;;;;;2.00;0.38;;;;;;;6.25;100.00;99576.25;4915955;29;20110;-77
2021/12/24 02:31:36;;;;;;;1.58;0.47;;;;;;;6.22;100.00;99578.72;4915511;29;20075;-77
2021/12/24 02:34:05;;;;;;;0.40;0.32;;;;;;;6.17;100.00;99589.69;4913077;29;20077;-77
2021/12/24 02:36:35;;;;;;;4.18;0.30;;;;;;;6.13;100.00;99593.00;4916103;29;20048;-74
2021/12/24 02:39:11;;;;;;;3.40;0.20;;;;;;;6.15;100.00;99601.63;4916426;28;20064;-75
2021/12/24 02:41:45;;;;;;;1.27;1.13;;;;;;;6.15;100.00;99593.91;4915326;29;20083;-75
2021/12/24 02:44:14;;;;;;;2.10;0.25;;;;;;;6.16;100.00;99600.78;4913226;29;20404;-76
2021/12/24 02:47:05;;;;;;;2.00;0.20;;;;;;;6.16;100.00;99595.63;4914817;29;20103;-77
2021/12/24 02:55:13;;;;;;;0.28;0.03;;;;;;;6.17;100.00;99584.56;4863033;29;20688;-71
2021/12/24 02:57:42;;;;;;;0.43;0.22;;;;;;;6.13;100.00;99578.44;4906190;29;20040;-73
2021/12/24 03:00:19;;;;;;;0.68;0.30;;;;;;;6.14;100.00;99579.31;4917965;29;20048;-72
2021/12/24 03:02:48;;;;;;;0.45;0.22;;;;;;;6.16;100.00;99572.53;4915560;29;20052;-71
2021/12/24 03:05:19;;;;;;;2.63;0.25;;;;;;;6.18;100.00;99576.00;4916082;29;20048;-72
2021/12/24 03:07:50;;;;;;;6.03;0.40;;;;;;;6.19;100.00;99578.63;4914686;29;20509;-75
2021/12/24 03:10:21;;;;;;;1.00;0.20;;;;;;;6.20;100.00;99574.34;4916570;29;20080;-76
2021/12/24 03:12:53;;;;;;;1.92;0.40;;;;;;;6.18;100.00;99576.00;4914158;29;20048;-77
2021/12/24 03:15:24;;;;;;;0.13;0.13;;;;;;;6.14;100.00;99579.31;4915748;29;20103;-76
2021/12/24 03:17:57;;;;;;;0.73;0.30;;;;;;;6.11;100.00;99574.97;4915098;29;20052;-76
2021/12/24 03:20:24;;;;;;;;;;;;;;;6.07;100.00;99574.03;4914286;29;20075;-76
2021/12/24 03:23:07;;;;;;;0.93;0.30;;;;;;;6.04;100.00;99576.47;4913058;29;20385;-76
2021/12/24 03:25:36;;;;;;;1.00;0.30;;;;;;;5.96;100.00;99564.28;4913237;29;20128;-75
2021/12/24 03:28:05;;;;;;;0.10;0.03;;;;;;;5.88;100.00;99561.44;4913925;29;20051;-74
2021/12/24 03:30:34;;;;;;;0.25;0.10;;;;;;;5.87;100.00;99560.56;4913738;29;20056;-76
2021/12/24 03:33:02;;;;;;;0.20;0.10;;;;;;;5.84;100.00;99555.34;4915292;29;20518;-76
2021/12/24 03:35:31;;;;;;;4.38;0.47;;;;;;;5.77;100.00;99558.56;4912601;29;20051;-75
2021/12/24 03:38:01;;;;;;;0.22;0.05;;;;;;;5.64;100.00;99552.19;4914509;29;20490;-76
2021/12/24 03:40:29;;;;;;;0.55;0.15;;;;;;;5.70;100.00;99550.63;4916253;28;20148;-73
2021/12/24 03:42:58;;;;;;;0.40;0.17;;;;;;;5.66;100.00;99540.28;4913995;29;20533;-76
2021/12/24 03:45:47;;;;;;;4.30;1.00;;;;;;;5.65;100.00;99548.78;4915627;29;20055;-75
2021/12/24 03:48:21;;;;;;;4.03;0.47;;;;;;;5.66;100.00;99550.53;4903384;29;20044;-75
2021/12/24 03:50:58;;;;;;;0.10;0.03;;;;;;;5.59;100.00;99543.50;4915165;29;20052;-76
2021/12/24 03:56:15;;;;;;;0.20;0.20;;;;;;;5.59;100.00;99538.38;4915417;29;20071;-76
2021/12/24 03:58:43;;;;;;;0.20;0.20;;;;;;;5.60;100.00;99547.78;4915474;29;20048;-74
2021/12/24 04:01:12;;;;;;;7.13;0.85;;;;;;;5.57;100.00;99534.88;4916158;29;20064;-75
2021/12/24 04:03:41;;;;;;;2.95;0.38;;;;;;;5.54;100.00;99534.75;4914509;29;20096;-76
2021/12/24 04:06:09;;;;;;;0.63;0.40;;;;;;;5.42;100.00;99521.56;4915844;29;20075;-79
2021/12/24 04:08:40;;;;;;;0.32;0.10;;;;;;;5.36;100.00;99529.06;4914877;29;20550;-75
2021/12/24 04:11:09;;;;;;;0.80;0.60;;;;;;;5.30;100.00;99529.78;4914674;29;20059;-76
2021/12/24 04:13:39;;;;;;;2.95;0.57;;;;;;;5.20;100.00;99520.94;4914652;29;20060;-76
2021/12/24 04:16:09;;;;;;;1.40;0.13;;;;;;;5.20;100.00;99531.19;4915479;29;20055;-73
2021/12/24 04:18:45;;;;;;;1.65;0.20;;;;;;;5.11;100.00;99523.22;4915625;29;20498;-73
2021/12/24 04:26:45;;;;;;;0.25;0.13;;;;;;;5.06;100.00;99535.00;4913869;29;20182;-74
2021/12/24 04:29:14;;;;;;;0.38;0.10;;;;;;;5.07;100.00;99526.50;4915896;29;20060;-76
2021/12/24 04:31:45;;;;;;;0.68;0.22;;;;;;;5.11;100.00;99532.56;4914473;29;20071;-75
2021/12/24 04:34:14;;;;;;;0.38;0.30;;;;;;;5.14;100.00;99532.69;4915513;29;20048;-76
2021/12/24 04:37:10;;;;;;;4.57;0.30;;;;;;;5.12;100.00;99530.06;4915337;29;20075;-75
2021/12/24 04:39:50;;;;;;;2.33;0.30;;;;;;;5.15;100.00;99524.16;4917255;28;20069;-77
2021/12/24 05:01:12;;;;;;;1.23;0.60;;;;;;;5.03;100.00;99497.31;4918109;29;20116;-76
2021/12/24 05:01:59;;;;;;;4.93;0.88;;;;;;;5.03;100.00;99499.00;4917314;29;20094;-77
2021/12/24 05:04:31;;;;;;;0.20;0.20;;;;;;;5.04;100.00;99501.63;4917677;29;20048;-74
2021/12/24 05:07:08;;;;;;;0.55;0.20;;;;;;;5.03;100.00;99491.31;4917023;29;20052;-75
2021/12/24 05:09:40;;;;;;;2.28;0.30;;;;;;;5.05;100.00;99497.38;4917672;29;20048;-75
2021/12/24 05:12:11;;;;;;;1.88;0.30;;;;;;;5.04;100.00;99495.66;4916887;29;20052;-77
2021/12/24 05:14:40;;;;;;;0.22;0.17;;;;;;;5.03;100.00;99488.75;4917835;29;20052;-73
2021/12/24 05:17:23;;;;;;;0.57;0.17;;;;;;;5.06;100.00;99493.09;4917278;29;20052;-74
2021/12/24 05:22:38;;;;;;;0.80;0.30;;;;;;;4.99;100.00;99484.34;4916812;29;20056;-77
2021/12/24 05:25:07;;;;;;;0.60;0.20;;;;;;;5.02;100.00;99482.75;4916802;29;20085;-76
2021/12/24 05:27:38;;;;;;;2.35;0.30;;;;;;;4.98;100.00;99477.50;4918458;29;20111;-75
2021/12/24 05:30:10;;;;;;;1.25;0.60;;;;;;;5.00;100.00;99486.09;4917124;29;20086;-75
2021/12/24 05:32:39;;;;;;;0.38;0.22;;;;;;;5.03;100.00;99478.50;4917571;29;20063;-73
2021/12/24 05:35:08;;;;;;;1.00;0.35;;;;;;;5.01;100.00;99465.63;4916937;29;20060;-74
2021/12/24 05:37:36;;;;;;;0.45;0.10;;;;;;;5.03;100.00;99460.56;4917753;29;20079;-73
2021/12/24 05:40:06;;;;;;;0.57;0.20;;;;;;;5.04;100.00;99472.56;4918807;28;20489;-73
2021/12/24 05:42:35;;;;;;;0.70;0.30;;;;;;;5.05;100.00;99476.84;4916730;29;20044;-74
2021/12/24 05:45:07;;;;;;;10.15;0.47;;;;;;;5.01;100.00;99468.19;4917170;29;20048;-76
2021/12/24 05:47:36;;;;;;;2.00;0.63;;;;;;;5.03;100.00;99468.25;4916760;29;20049;-76
2021/12/24 05:50:05;;;;;;;3.30;0.57;;;;;;;5.04;100.00;99462.31;4917808;29;20120;-74
2021/12/24 05:52:34;;;;;;;1.27;0.38;;;;;;;5.00;100.00;99463.91;4915962;29;20167;-74
2021/12/24 05:55:03;;;;;;;1.75;0.43;;;;;;;5.01;100.00;99469.88;4936232;29;20107;-79
2021/12/24 05:57:32;;;;;;;3.65;0.47;;;;;;;4.94;100.00;99463.69;4924016;29;20052;-72
2021/12/24 06:00:04;;;;;;;1.10;0.77;;;;;;;4.95;100.00;99467.16;4916214;29;20510;-75
2021/12/24 06:02:35;;;;;;;0.65;0.30;;;;;;;4.96;100.00;99461.19;4917822;29;20052;-73
2021/12/24 06:05:03;;;;;;;0.65;0.43;;;;;;;5.01;100.00;99469.88;4916661;29;20048;-75
2021/12/24 06:07:32;;;;;;;4.07;0.30;;;;;;;5.01;100.00;99467.31;4917280;29;20056;-74
2021/12/24 06:10:00;;;;;;;0.43;0.20;;;;;;;5.06;100.00;99468.34;4916227;29;20112;-74
2021/12/24 06:12:29;;;;;;;3.08;0.43;;;;;;;5.06;100.00;99465.78;4916602;29;20100;-73
2021/12/24 06:15:03;;;;;;;1.58;0.38;;;;;;;5.08;100.00;99460.69;4915500;29;20044;-75
2021/12/24 06:17:32;;;;;;;1.10;0.50;;;;;;;5.06;100.00;99460.63;4916315;29;20076;-76
2021/12/24 06:20:03;;;;;;;2.15;0.30;;;;;;;5.08;100.00;99456.44;4916378;29;20163;-74
2021/12/24 06:22:31;;;;;;;0.90;0.40;;;;;;;5.11;100.00;99469.38;4916554;29;20087;-74
2021/12/24 06:24:59;;;;;;;2.40;0.40;;;;;;;5.09;100.00;99458.19;4916813;29;20091;-76
2021/12/24 06:27:28;;;;;;;0.65;0.22;;;;;;;5.12;100.00;99471.09;4916090;29;20115;-74
2021/12/24 06:29:56;;;;;;;0.82;0.60;;;;;;;5.12;100.00;99455.72;4916476;29;20521;-75
2021/12/24 06:32:25;;;;;;;0.10;0.10;;;;;;;5.16;100.00;99456.69;4914633;29;20547;-76
2021/12/24 06:34:54;;;;;;;0.63;0.32;;;;;;;5.14;100.00;99455.75;4915814;29;20115;-75
2021/12/24 06:37:24;;;;;;;2.95;0.50;;;;;;;5.18;100.00;99450.78;4915907;29;20052;-76
2021/12/24 06:39:54;;;;;;;1.30;0.40;;;;;;;5.17;100.00;99441.31;4917779;28;20198;-76
2021/12/24 06:42:23;;;;;;;1.10;0.68;;;;;;;5.17;100.00;99441.31;4915374;29;20047;-75
2021/12/24 06:44:52;;;;;;;3.05;0.32;;;;;;;5.16;100.00;99431.03;4916558;29;20057;-74
2021/12/24 06:47:21;;;;;;;0.28;0.17;;;;;;;5.15;100.00;99436.97;4916181;29;20044;-76
2021/12/24 06:49:49;;;;;;;2.17;0.47;;;;;;;5.09;100.00;99424.84;4915365;29;20108;-77
2021/12/24 06:52:17;;;;;;;2.50;0.55;;;;;;;5.13;100.00;99433.50;4916123;29;20055;-75
2021/12/24 06:54:47;;;;;;;0.88;0.20;;;;;;;5.16;100.00;99439.59;4915704;29;20048;-75
2021/12/24 06:57:18;;;;;;;4.45;0.52;;;;;;;5.15;100.00;99432.72;4930033;29;20123;-73
2021/12/24 06:59:47;;;;;;;2.90;0.82;;;;;;;5.13;100.00;99431.81;4916260;29;20052;-73
2021/12/24 07:02:15;;;;;;;1.02;0.55;;;;;;;5.15;100.00;99437.84;4916501;29;20545;-73
2021/12/24 07:04:44;;;;;;;2.58;0.55;;;;;;;5.16;100.00;99429.34;4914722;29;20116;-74
2021/12/24 07:07:12;;;;;;;0.30;0.30;;;;;;;5.17;100.00;99431.06;4915243;29;20502;-73
2021/12/24 07:09:43;;;;;;;3.53;0.50;;;;;;;5.21;100.00;99432.91;4915840;29;20124;-72
2021/12/24 07:12:15;;;;;;;1.30;0.28;;;;;;;5.20;100.00;99425.16;4914824;29;20499;-72
2021/12/24 07:14:44;;;;;;;1.92;0.60;;;;;;;5.21;100.00;99427.78;4916731;29;20505;-73
2021/12/24 07:17:12;;;;;;;2.97;0.60;;;;;;;5.21;100.00;99432.91;4914892;29;20083;-72
2021/12/24 07:19:41;;;;;;;3.38;0.25;;;;;;;5.23;100.00;99426.13;4916535;29;20459;-72
2021/12/24 07:22:09;;;;;;;0.98;0.22;;;;;;;5.22;100.00;99432.09;4914310;29;20107;-74
2021/12/24 07:24:38;;;;;;;1.75;0.38;;;;;;;5.23;100.00;99421.00;4915911;29;20052;-72
2021/12/24 07:27:08;;;;;;;3.70;0.28;;;;;;;5.23;100.00;99421.00;4915500;29;20128;-72
2021/12/24 07:29:38;;;;;;;5.55;0.43;;;;;;;5.20;100.00;99415.78;4915307;29;20047;-73
2021/12/24 07:32:07;;;;;;;3.03;0.38;;;;;;;5.21;100.00;99421.78;4902503;29;20100;-73
2021/12/24 07:34:36;;;;;;;2.03;0.55;;;;;;;5.12;100.00;99411.25;4914865;29;20090;-72
2021/12/24 07:37:05;;;;;;;0.43;0.40;;;;;;;5.13;100.00;99413.88;4915965;29;20052;-72
2021/12/24 07:39:33;;;;;;;0.77;0.40;;;;;;;5.14;100.00;99417.31;4914811;28;20048;-72
2021/12/24 07:42:02;;;;;;;1.13;0.52;;;;;;;5.11;100.00;99409.50;4915343;29;20067;-73
2021/12/24 07:44:33;;;;;;;1.80;0.40;;;;;;;5.13;100.00;99413.88;4918855;29;20103;-73
2021/12/24 07:47:05;;;;;;;4.18;0.55;;;;;;;5.16;100.00;99408.84;4933764;29;20067;-72
2021/12/24 07:49:39;;;;;;;1.45;0.30;;;;;;;5.17;100.00;99400.31;4930678;29;20071;-73
2021/12/24 07:52:12;;;;;;;3.53;0.63;;;;;;;5.15;100.00;99391.69;4914993;29;20103;-72
2021/12/24 07:54:43;;;;;;;2.72;0.57;;;;;;;5.15;100.00;99384.00;4915556;29;20104;-73
2021/12/24 07:57:16;;;;;;;0.63;0.22;;;;;;;5.08;100.00;99381.22;4917005;29;20518;-73
2021/12/24 07:59:45;;;;;;;0.60;0.30;;;;;;;5.12;100.00;99375.38;4916232;29;20044;-72
2021/12/24 08:02:18;;;;;;;0.82;0.35;;;;;;;5.10;100.00;99356.50;4901007;29;20052;-73
2021/12/24 08:04:48;;;;;;;0.52;0.30;;;;;;;5.11;100.00;99347.97;4916253;29;20487;-72
2021/12/24 08:07:17;;;;;;;1.55;0.25;;;;;;;5.03;100.00;99355.44;4914585;29;20056;-73
2021/12/24 08:09:45;;;;;;;3.30;0.32;;;;;;;5.02;100.00;99348.59;4915275;29;20080;-72
2021/12/24 08:12:14;;;;;;;2.30;0.43;;;;;;;5.04;100.00;99349.50;4914927;29;20108;-72
2021/12/24 08:14:42;;;;;;;0.13;0.10;;;;;;;5.03;100.00;99353.75;4914610;29;20078;-73
2021/12/24 08:17:12;;;;;;;1.38;0.65;;;;;;;5.01;100.00;99340.00;4920049;29;20056;-72
2021/12/24 08:19:42;;;;;;;3.92;0.45;;;;;;;5.01;100.00;99341.72;4904830;29;20055;-72
2021/12/24 08:22:11;;;;;;;1.55;0.32;;;;;;;4.95;100.00;99339.00;4919295;29;20052;-72
2021/12/24 08:24:40;;;;;;;1.02;0.52;;;;;;;4.91;100.00;99339.72;4917312;29;20075;-72
2021/12/24 08:27:10;;;;;;;4.25;0.68;;;;;;;4.95;100.00;99331.31;4919451;29;20051;-71
2021/12/24 08:29:38;;;;;;;3.40;0.93;;;;;;;4.96;100.00;99339.00;4918106;29;20606;-73
2021/12/24 08:32:08;;;;;;;0.30;0.20;;;;;;;4.94;100.00;99327.84;4905403;29;20048;-71
2021/12/24 08:34:36;;;;;;;5.07;0.60;;;;;;;4.96;100.00;99326.19;4918852;29;20103;-73
2021/12/24 08:37:07;;;;;;;2.03;0.45;;;;;;;4.97;100.00;99311.69;4917244;29;20565;-72
2021/12/24 08:39:36;;;;;;;0.80;0.50;;;;;;;4.95;100.00;99300.53;4919278;29;20052;-72
2021/12/24 08:42:05;;;;;;;1.48;0.30;;;;;;;4.93;100.00;99287.69;4916867;29;20055;-71
2021/12/24 08:44:34;;;;;;;3.90;0.70;;;;;;;4.94;100.00;99284.28;4918681;29;20056;-72
2021/12/24 08:47:04;;;;;;;2.15;0.88;;;;;;;4.95;100.00;99274.91;4917598;29;20135;-70
2021/12/24 08:49:33;;;;;;;0.75;0.30;;;;;;;4.88;100.00;99268.75;4917986;29;20490;-71
2021/12/24 08:52:01;;;;;;;0.55;0.22;;;;;;;4.87;100.00;99259.31;4918034;29;20506;-71
2021/12/24 08:54:32;;;;;;;2.05;0.50;;;;;;;4.81;100.00;99254.88;4917491;29;20498;-72
2021/12/24 08:57:00;;;;;;;2.80;0.40;;;;;;;4.79;100.00;99248.84;4919518;29;20746;-72
2021/12/24 08:59:29;;;;;;;2.53;0.57;;;;;;;4.74;100.00;99249.53;4919670;29;20060;-72
2021/12/24 09:01:58;;;;;;;3.75;0.60;;;;;;;4.72;100.00;99252.06;4919465;29;20108;-73
2021/12/24 09:04:27;;;;;;;2.17;0.30;;;;;;;4.70;100.00;99230.66;4917181;29;20052;-71
2021/12/24 09:06:55;;;;;;;3.97;0.50;;;;;;;4.74;100.00;99234.16;4918984;29;20056;-71
2021/12/24 09:09:24;;;;;;;1.90;0.22;;;;;;;4.71;100.00;99234.06;4917639;29;20103;-72
2021/12/24 09:11:54;;;;;;;1.95;0.65;;;;;;;4.64;100.00;99220.22;4917107;29;20062;-72
2021/12/24 09:14:23;;;;;;;2.55;0.30;;;;;;;4.66;100.00;99226.25;4918215;29;20084;-73
2021/12/24 09:16:52;;;;;;;3.13;0.73;;;;;;;4.68;100.00;99223.75;4916951;29;20138;-72
2021/12/24 09:19:24;;;;;;;1.00;0.40;;;;;;;4.66;100.00;99210.88;4919517;29;20048;-71
2021/12/24 09:21:55;;;;;;;2.38;0.28;;;;;;;4.69;100.00;99203.28;4916340;29;20059;-69
2021/12/24 09:24:24;;;;;;;4.13;0.38;;;;;;;4.65;100.00;99191.22;4918446;29;20056;-72
2021/12/24 09:26:57;;;;;;;2.75;0.32;;;;;;;4.66;100.00;99195.50;4916479;29;20384;-73
2021/12/24 09:29:26;;;;;;;0.85;0.30;;;;;;;4.60;100.00;99195.34;4904434;29;20060;-71
2021/12/24 09:31:55;;;;;;;3.08;0.35;;;;;;;4.57;100.00;99177.31;4917623;29;20471;-70
2021/12/24 09:34:24;;;;;;;1.30;0.40;;;;;;;4.56;100.00;99162.78;4916793;29;20116;-71
2021/12/24 09:36:53;;;;;;;1.15;0.30;;;;;;;4.55;100.00;99164.47;4917949;29;20503;-71
2021/12/24 09:39:21;;;;;;;1.80;0.22;;;;;;;4.59;100.00;99171.41;4916169;29;20455;-72
2021/12/24 09:41:50;;;;;;;0.10;0.10;;;;;;;4.55;100.00;99150.78;4919136;28;20065;-73
2021/12/24 09:44:20;;;;;;;3.50;0.15;;;;;;;4.62;100.00;99155.25;4916585;29;20151;-72
2021/12/24 09:46:48;;;;;;;1.15;0.38;;;;;;;4.65;100.00;99141.66;4918148;29;20048;-72
2021/12/24 09:49:17;;;;;;;3.58;0.63;;;;;;;4.68;100.00;99132.38;4917462;29;20052;-73
2021/12/24 09:51:48;;;;;;;1.30;0.45;;;;;;;4.67;100.00;99109.28;4917233;29;20637;-72
2021/12/24 09:54:18;;;;;;;2.33;0.20;;;;;;;4.69;100.00;99084.56;4931465;29;20082;-72
2021/12/24 09:56:47;;;;;;;1.02;0.45;;;;;;;4.65;100.00;99064.81;4904068;29;20087;-72
2021/12/24 09:59:16;;;;;;;0.20;0.13;;;;;;;4.66;100.00;99038.38;4920716;29;20077;-71
2021/12/24 10:01:54;;;;;;;2.10;0.50;;;;;;;4.58;100.00;99040.72;4917354;29;20110;-71
2021/12/24 10:04:24;;;;;;;6.25;0.32;;;;;;;4.58;100.00;99040.72;4917392;29;20056;-73
2021/12/24 10:06:55;;;;;;;0.30;0.13;;;;;;;4.57;100.00;99026.19;4917608;29;20056;-72
2021/12/24 10:09:31;;;;;;;3.83;0.38;;;;;;;4.57;100.00;99027.06;4917759;29;20088;-72
2021/12/24 10:12:01;;;;;;;0.63;0.30;;;;;;;4.56;100.00;99032.16;4915737;29;20044;-72
2021/12/24 10:14:33;;;;;;;1.48;0.93;;;;;;;4.55;100.00;99020.16;4915672;29;20104;-73
2021/12/24 10:17:05;;;;;;;1.75;0.40;;;;;;;4.57;100.00;99031.31;4916067;29;20060;-73
2021/12/24 10:19:45;;;;;;;0.90;0.38;;;;;;;4.59;100.00;99030.53;4916151;29;20051;-72
2021/12/24 10:22:14;;;;;;;2.05;0.40;;;;;;;4.59;100.00;99027.09;4917660;29;20597;-72
2021/12/24 10:24:43;;;;;;;4.07;0.50;;;;;;;4.62;100.00;99028.03;4915740;29;20557;-72
2021/12/24 10:27:11;;;;;;;0.40;0.30;;;;;;;4.66;100.00;99008.50;4917884;29;20052;-71
2021/12/24 10:29:41;;;;;;;3.25;0.85;;;;;;;4.70;100.00;99018.00;4915405;29;20123;-70
2021/12/24 10:32:14;;;;;;;1.40;0.40;;;;;;;4.66;100.00;99005.94;4903693;29;20052;-71
2021/12/24 10:34:42;;;;;;;;;;;;;;;4.69;100.00;98993.19;4916362;29;20595;-71
2021/12/24 10:37:18;;;;;;;0.98;0.25;;;;;;;4.74;100.00;98977.94;4914777;29;20464;-72
2021/12/24 10:39:52;;;;;;;0.43;0.40;;;;;;;4.74;100.00;98994.19;4917398;29;20044;-71
2021/12/24 10:42:25;;;;;;;2.17;0.30;;;;;;;4.72;100.00;98994.94;4915568;29;20484;-72
2021/12/24 10:44:55;;;;;;;4.70;1.40;;;;;;;4.75;100.00;99001.03;4916719;29;20108;-71
2021/12/24 10:47:27;;;;;;;0.50;0.30;;;;;;;4.81;100.00;98988.38;4915310;29;20056;-72
2021/12/24 10:50:12;;;;;;;8.13;0.90;;;;;;;4.82;100.00;98995.22;4904615;29;20096;-72
2021/12/24 10:52:59;;;;;;;1.80;0.50;;;;;;;4.88;100.00;99016.69;4914425;29;20108;-72
2021/12/24 10:55:30;;;;;;;1.73;0.68;;;;;;;4.89;100.00;99016.75;4905101;29;20131;-72
2021/12/24 10:58:01;;;;;;;0.30;0.30;;;;;;;4.94;100.00;99032.22;4915221;29;20095;-71
2021/12/24 11:00:32;;;;;;;0.45;0.25;;;;;;;4.90;100.00;98999.66;4918412;29;20169;-72
2021/12/24 11:03:05;;;;;;;3.42;0.80;;;;;;;4.97;100.00;99004.09;4916581;29;20062;-72
2021/12/24 11:05:38;;;;;;;2.17;0.70;;;;;;;5.01;100.00;99008.47;4902353;29;20108;-73
2021/12/24 11:08:08;;;;;;;1.52;0.65;;;;;;;5.03;100.00;99019.63;4916248;29;20048;-72
2021/12/24 11:10:39;;;;;;;1.17;0.57;;;;;;;5.07;100.00;99035.97;4916016;29;20083;-72
2021/12/24 11:13:11;;;;;;;1.92;0.55;;;;;;;5.04;100.00;99036.78;4915664;29;20490;-72
2021/12/24 11:15:42;;;;;;;2.60;0.73;;;;;;;4.96;100.00;99045.97;4914847;29;20206;-70
2021/12/24 11:18:16;;;;;;;0.60;0.40;;;;;;;4.92;100.00;99031.31;4916983;29;20052;-71
2021/12/24 11:20:46;;;;;;;1.98;0.40;;;;;;;4.92;100.00;99013.38;4914372;29;20116;-71
2021/12/24 11:23:16;;;;;;;2.95;0.88;;;;;;;4.91;100.00;99012.53;4915523;29;20040;-70
2021/12/24 11:25:48;;;;;;;0.85;0.43;;;;;;;4.85;100.00;99016.63;4915851;29;20116;-70
2021/12/24 11:28:18;;;;;;;2.17;0.30;;;;;;;4.82;100.00;99002.06;4914910;29;20055;-70
2021/12/24 11:30:49;;;;;;;3.08;0.60;;;;;;;4.73;100.00;99015.50;4916066;29;20108;-70
2021/12/24 11:33:21;;;;;;;2.50;1.02;;;;;;;4.73;100.00;99025.75;4914497;29;20591;-69
2021/12/24 11:35:51;;;;;;;2.33;0.43;;;;;;;4.70;100.00;99020.56;4916573;29;20084;-70
2021/12/24 11:38:22;;;;;;;1.50;0.68;;;;;;;4.70;100.00;99033.38;4914765;29;20310;-70
2021/12/24 11:40:59;;;;;;;4.60;0.60;;;;;;;4.57;100.00;99041.56;4919320;28;20052;-69
2021/12/24 11:43:30;;;;;;;1.98;0.73;;;;;;;4.52;100.00;99045.72;4915025;29;20052;-71
2021/12/24 11:45:59;;;;;;;0.65;0.32;;;;;;;4.54;100.00;99059.44;4915518;29;20056;-71
2021/12/24 11:48:31;;;;;;;2.33;0.60;;;;;;;4.44;100.00;99054.88;4915614;29;20637;-70
2021/12/24 11:51:01;;;;;;;1.67;0.47;;;;;;;4.44;100.00;99060.00;4917218;29;20140;-69
2021/12/24 11:53:33;;;;;;;2.60;0.50;;;;;;;4.46;100.00;99058.34;4919678;29;20116;-71
2021/12/24 11:56:06;;;;;;;2.45;0.30;;;;;;;4.41;100.00;99056.53;4918441;29;20060;-69
2021/12/24 11:58:42;;;;;;;0.80;0.20;;;;;;;4.43;100.00;99035.22;4920421;29;20048;-69
2021/12/24 12:01:11;;;;;;;5.18;0.38;;;;;;;4.31;100.00;99022.97;4920886;29;20056;-69
2021/12/24 12:03:45;;;;;;;2.53;0.25;;;;;;;4.27;100.00;99011.75;4906270;29;20052;-69
2021/12/24 12:06:34;;;;;;;2.28;0.22;;;;;;;4.17;100.00;99005.53;4918906;29;20048;-69
2021/12/24 12:09:06;;;;;;;3.90;0.47;;;;;;;4.18;100.00;99002.13;4908443;29;20509;-70
2021/12/24 12:11:36;;;;;;;1.15;0.20;;;;;;;4.25;100.00;99003.16;4918408;29;20052;-69
2021/12/24 12:14:07;;;;;;;0.30;0.30;;;;;;;4.26;100.00;99004.91;4918253;29;20101;-70
2021/12/24 12:16:51;;;;;;;3.63;0.55;;;;;;;4.07;100.00;98987.31;4920298;29;20052;-69
2021/12/24 12:19:26;;;;;;;0.30;0.10;;;;;;;4.13;100.00;98983.25;4918201;29;20047;-70
2021/12/24 12:22:21;;;;;;;0.13;0.10;;;;;;;4.14;100.00;98967.03;4919300;29;20128;-68
2021/12/24 12:27:41;;;;;;;0.17;0.10;;;;;;;4.06;100.00;99006.06;4919195;29;20052;-70
2021/12/24 12:30:29;;;;;;;2.58;0.40;;;;;;;4.00;100.00;98996.53;4917596;29;20055;-70
2021/12/24 12:33:11;;;;;;;0.52;0.30;;;;;;;4.04;100.00;98998.34;4906277;29;20048;-69
2021/12/24 12:35:44;;;;;;;0.00;0.00;;;;;;;3.98;100.00;99009.25;4917698;29;20605;-69
2021/12/24 12:38:28;;;;;;;1.13;0.20;;;;;;;4.01;100.00;98992.25;4917784;29;20080;-69
2021/12/24 12:41:34;;;;;;;0.15;0.10;;;;;;;3.99;100.00;98997.38;4916859;28;20092;-70
2021/12/24 12:44:05;;;;;;;3.35;0.45;;;;;;;3.81;100.00;98967.00;4913409;29;20443;-70
2021/12/24 12:46:36;;;;;;;0.15;0.10;;;;;;;3.88;100.00;98973.16;4917273;29;20052;-70
2021/12/24 12:49:07;;;;;;;1.55;0.13;;;;;;;3.90;100.00;98964.72;4918637;29;20048;-70
2021/12/24 12:52:01;;;;;;;0.20;0.20;;;;;;;3.91;100.00;98958.75;4918406;29;20506;-69
2021/12/24 12:54:40;;;;;;;0.20;0.20;;;;;;;3.93;100.00;98949.44;4908444;29;20064;-69
2021/12/24 12:57:18;;;;;;;0.08;0.08;;;;;;;3.92;100.00;98945.16;4919179;29;20045;-70
2021/12/24 13:00:20;;;;;;;0.15;0.10;;;;;;;3.91;100.00;98945.97;4919045;29;20052;-68
2021/12/24 13:03:10;;;;;;;0.43;0.10;;;;;;;3.84;100.00;98933.81;4918215;29;20048;-68
2021/12/24 13:06:13;;;;;;;3.50;0.20;;;;;;;3.78;100.00;98926.88;4918694;29;20506;-68